Impacts TAF Board
For situational awareness. Not to be used for flight planning purposes.
IDs:

KIAH - Houston/Bush Intl, TX, US

Issued at 0821 UTC 25 May 2020
Updated at 0925 UTC 25 May 2020
Potential Impact None Slight Moderate High
Time0853Z 25/10Z 25/11Z 25/12Z 25/13Z 25/14Z 25/15Z 25/16Z 25/17Z 25/18Z 25/19Z 25/20Z 25/21Z 25/22Z>>
Type OBS PRVL PRVL PRVL PRVL PRVL PRVL PRVL PRVL PRVL PRVL PRVL PRVL PRVL
VIS 10 >6 >6 >6 >6 >6 >6 >6 >6 >6 >6 >6 >6 >6
CIG 250 25 25 15 15 15 35 35 35 50 50 50 50 50
Cover BKN OVC OVC BKN BKN BKN BKN BKN BKN BKN BKN BKN BKN BKN
FltCat VFR MVFR MVFR MVFR MVFR MVFR VFR VFR VFR VFR VFR VFR VFR VFR
WX -- SHRA VCTS SHRA VCTS -RA VCTS -RA VCTS -RA VCTS -- -- -- -- -- -- -- --
WDir 50 130 130 VRB VRB VRB 130 130 130 140 140 140 140 140
WSpd 5 7 7 6 6 6 6 6 6 8 8 8 8 8
WGst -- -- -- -- -- -- -- -- -- -- -- -- -- --
Raw TAF
KIAH 250821Z 2508/2612 10006KT P6SM SCT015 BKN120 BKN250
  FM251000 13007KT P6SM SHRA VCTS SCT015 BKN025CB OVC250
  FM251200 VRB06KT P6SM -RA VCTS BKN015CB
  FM251500 13006KT P6SM SCT025 BKN035
  FM251800 14008KT P6SM BKN050
  FM260400 13005KT P6SM SCT015 BKN040
  FM260900 13007KT P6SM VCSH BKN020


Raw METAR
KIAH 250853Z 05005KT 10SM FEW025 FEW075 BKN250 19/18 A2974 RMK AO2 SLP069 T01940183 55017
KIAH 250753Z 10006KT 10SM FEW009 FEW160 BKN250 19/18 A2973 RMK AO2 SLP068 T01940183
KIAH 250653Z 11005KT 10SM FEW007 BKN160 BKN250 19/18 A2977 RMK AO2 SLP080 T01940183

METAR Board
Radar Display
Forecast Discussion
For situational awareness. Not to be used for flight planning purposes.